Time;durP1;ratioP1;P1;durP2;ratioP2;P2;SDS_P1;SDS_P2;PMS_P1;PMS_P2;Temp;Humidity;BMP_temperature;BMP_pressure;BME280_temperature;BME280_humidity;BME280_pressure;Samples;Min_cycle;Max_cycle;Signal;HPM_P1;HPM_P2
2023/01/18 00:02:53;;;;;;;;;18.00;16.00;;;;;8.51;57.86;96094.94;6242409;27;96508;-63
2023/01/18 00:06:00;;;;;;;;;9.80;9.80;;;;;8.45;58.29;96096.88;6222686;27;96816;-62
2023/01/18 00:09:04;;;;;;;;;12.60;12.00;;;;;8.52;58.06;96092.00;6242106;28;96871;-63
2023/01/18 00:12:07;;;;;;;;;10.40;9.60;;;;;8.49;58.67;96091.75;6242203;28;96811;-62
2023/01/18 00:15:12;;;;;;;;;11.00;10.00;;;;;8.46;58.45;96094.97;6241414;28;96266;-64
2023/01/18 00:18:15;;;;;;;;;9.00;8.00;;;;;8.36;58.91;96095.00;6241526;28;96216;-64
2023/01/18 00:21:21;;;;;;;;;10.00;9.75;;;;;8.21;59.17;96101.22;6241404;28;96370;-62
2023/01/18 00:24:26;;;;;;;;;11.00;10.00;;;;;8.14;59.16;96100.72;6223103;28;96399;-61
2023/01/18 00:27:29;;;;;;;;;8.00;7.00;;;;;8.01;60.08;96099.44;6241265;27;97377;-63
2023/01/18 00:30:33;;;;;;;;;10.00;8.00;;;;;8.01;59.97;96087.91;6244336;27;96242;-61
2023/01/18 00:33:37;;;;;;;;;9.00;8.00;;;;;7.97;59.65;96092.97;6222146;28;96792;-63
2023/01/18 00:36:41;;;;;;;;;9.40;8.80;;;;;7.81;60.38;96088.75;6218946;27;96993;-62
2023/01/18 00:39:45;;;;;;;;;12.00;11.00;;;;;7.77;60.04;96095.75;6240660;28;96323;-62
2023/01/18 00:46:11;;;;;;;;;9.00;9.00;;;;;7.32;61.39;96089.38;6229127;27;96823;-62
2023/01/18 00:49:15;;;;;;;;;10.60;10.00;;;;;7.39;61.16;96100.59;6222308;28;96603;-62
2023/01/18 00:52:20;;;;;;;;;8.00;8.00;;;;;7.21;61.36;96089.63;6240692;28;96278;-61
2023/01/18 00:55:23;;;;;;;;;10.00;9.00;;;;;7.21;60.76;96094.97;6221794;28;96850;-62
2023/01/18 00:58:27;;;;;;;;;9.75;9.00;;;;;7.12;61.32;96094.72;6240574;28;96204;-63
2023/01/18 01:01:30;;;;;;;;;9.00;7.80;;;;;6.98;61.90;96085.63;6222149;28;96859;-61
2023/01/18 01:07:56;;;;;;;;;9.50;9.00;;;;;6.97;61.61;96060.72;6246225;27;96450;-61
2023/01/18 01:11:07;;;;;;;;;8.40;8.00;;;;;6.83;62.56;96066.84;6246562;27;96274;-62
2023/01/18 01:27:41;;;;;;;;;8.60;8.00;;;;;6.87;62.10;96046.50;6227833;28;96308;-63
2023/01/18 01:30:44;;;;;;;;;8.00;6.00;;;;;6.90;62.33;96037.91;6247364;27;96180;-61
2023/01/18 01:33:48;;;;;;;;;6.80;6.00;;;;;6.81;62.39;96016.25;6242839;28;96328;-62
2023/01/18 01:36:52;;;;;;;;;7.00;7.00;;;;;6.74;62.55;96007.69;6223888;28;96612;-62
2023/01/18 01:39:57;;;;;;;;;5.60;5.40;;;;;6.79;62.25;96001.53;6242617;28;96602;-61
2023/01/18 01:43:00;;;;;;;;;8.00;7.00;;;;;6.77;62.63;96015.16;6243079;28;96295;-62
2023/01/18 01:46:12;;;;;;;;;4.80;4.80;;;;;6.71;62.63;96020.78;6220037;28;98877;-63
2023/01/18 01:49:19;;;;;;;;;7.00;7.00;;;;;6.79;62.23;96026.41;6242654;28;96257;-62
2023/01/18 01:52:26;;;;;;;;;7.20;6.20;;;;;6.81;62.09;96042.22;6242100;28;96295;-62
2023/01/18 01:55:34;;;;;;;;;6.33;5.33;;;;;6.86;61.91;96045.69;6244671;28;96900;-62
2023/01/18 01:58:39;;;;;;;;;6.80;5.80;;;;;6.90;61.67;96032.56;6249085;27;96843;-62
2023/01/18 02:01:43;;;;;;;;;6.40;6.00;;;;;6.93;61.61;96032.84;6245120;28;96254;-62
2023/01/18 02:04:52;;;;;;;;;8.40;8.40;;;;;7.00;61.66;96007.66;6244097;28;96714;-62
2023/01/18 02:07:59;;;;;;;;;6.20;6.00;;;;;7.00;61.33;95999.63;6245375;27;96875;-62
2023/01/18 02:11:04;;;;;;;;;7.50;7.00;;;;;7.04;61.34;95985.41;6249744;27;96368;-62
2023/01/18 02:14:10;;;;;;;;;7.00;7.00;;;;;7.05;61.08;95967.47;6244963;28;96387;-62
2023/01/18 02:17:29;;;;;;;;;7.40;7.40;;;;;6.96;61.46;95943.13;6229087;28;96277;-62
2023/01/18 02:20:52;;;;;;;;;11.00;9.40;;;;;6.99;61.09;95913.13;6238612;28;96233;-64
2023/01/18 02:24:41;;;;;;;;;10.00;9.50;;;;;7.14;60.89;95918.44;6236337;28;96276;-62
2023/01/18 02:27:55;;;;;;;;;10.20;8.60;;;;;7.26;60.41;95958.34;6206602;28;96401;-63
2023/01/18 02:31:08;;;;;;;;;10.60;10.40;;;;;7.17;60.70;95944.72;6245735;27;96836;-61
2023/01/18 02:34:22;;;;;;;;;10.00;9.00;;;;;7.09;60.72;95945.25;6248537;27;96183;-63
2023/01/18 02:37:39;;;;;;;;;8.50;8.00;;;;;7.07;61.20;95960.00;6247528;28;96371;-62
2023/01/18 02:40:56;;;;;;;;;10.40;10.00;;;;;7.08;61.22;95951.69;6246314;28;96299;-62
2023/01/18 02:47:23;;;;;;;;;13.00;11.40;;;;;7.05;61.21;95932.66;6246327;28;96308;-63
2023/01/18 02:50:27;;;;;;;;;9.00;8.40;;;;;7.05;61.48;95938.81;6236992;27;98791;-62
2023/01/18 02:53:33;;;;;;;;;9.60;9.00;;;;;6.97;61.80;95942.06;6229988;28;99163;-63
2023/01/18 02:56:41;;;;;;;;;11.00;10.60;;;;;7.09;61.34;95952.47;6246633;27;96437;-64
2023/01/18 02:59:49;;;;;;;;;9.00;8.50;;;;;7.01;61.91;95955.72;6246976;28;96476;-61
2023/01/18 03:02:58;;;;;;;;;10.00;10.00;;;;;7.03;61.71;95985.72;6248268;27;96206;-62
2023/01/18 03:06:06;;;;;;;;;9.00;8.50;;;;;7.05;61.53;95997.75;6245730;27;96527;-62
2023/01/18 03:09:17;;;;;;;;;8.50;8.50;;;;;6.93;62.07;95999.91;6245397;28;96289;-61
2023/01/18 03:12:26;;;;;;;;;9.00;8.00;;;;;7.00;61.78;95992.41;6245641;27;96585;-61
2023/01/18 03:15:40;;;;;;;;;10.00;9.00;;;;;7.13;61.40;95988.38;6245254;28;96192;-61
2023/01/18 03:19:00;;;;;;;;;9.00;9.00;;;;;7.09;61.84;95989.97;6246333;27;96422;-62
2023/01/18 03:22:05;;;;;;;;;10.00;9.00;;;;;7.32;60.85;95995.59;6261890;27;96406;-64
2023/01/18 03:25:11;;;;;;;;;9.00;9.00;;;;;7.34;60.55;95996.09;6245159;28;96290;-62
2023/01/18 03:35:13;;;;;;;;;11.00;11.00;;;;;7.52;60.33;95972.47;6256854;27;96493;-63
2023/01/18 03:38:17;;;;;;;;;11.00;9.00;;;;;7.55;60.11;95961.22;6244014;28;96297;-61
2023/01/18 03:41:25;;;;;;;;;9.00;9.00;;;;;7.46;59.87;95955.63;6245072;28;96893;-61
2023/01/18 03:44:37;;;;;;;;;10.00;9.00;;;;;7.53;60.00;95963.34;6244273;28;96348;-61
2023/01/18 03:47:41;;;;;;;;;10.00;9.50;;;;;7.57;59.92;95970.59;6251725;27;96225;-63
2023/01/18 03:50:51;;;;;;;;;10.00;10.00;;;;;7.59;59.70;95965.75;6247726;27;96293;-61
2023/01/18 03:54:04;;;;;;;;;10.60;9.60;;;;;7.60;59.90;95955.81;6243627;28;96193;-64
2023/01/18 03:57:19;;;;;;;;;9.20;8.20;;;;;7.67;59.59;95941.03;6239555;28;96986;-62
2023/01/18 04:00:23;;;;;;;;;8.20;7.80;;;;;7.74;59.46;95919.31;6225611;28;96208;-64
2023/01/18 04:03:26;;;;;;;;;9.40;9.00;;;;;7.79;59.36;95906.69;6241681;28;96186;-61
2023/01/18 04:06:32;;;;;;;;;10.00;9.00;;;;;7.88;58.96;95914.13;6233979;28;96120;-61
2023/01/18 04:09:35;;;;;;;;;9.00;9.00;;;;;7.81;59.19;95925.19;6243406;28;96760;-62
2023/01/18 04:12:38;;;;;;;;;9.00;8.40;;;;;7.87;59.15;95921.38;6243907;28;96226;-62
2023/01/18 04:15:42;;;;;;;;;9.50;9.50;;;;;7.91;58.95;95906.34;6243191;27;96425;-67
2023/01/18 04:18:45;;;;;;;;;10.00;9.60;;;;;7.93;59.10;95911.41;6239045;27;96753;-62
2023/01/18 04:21:50;;;;;;;;;10.00;9.00;;;;;7.92;58.96;95910.63;6242917;28;96603;-61
2023/01/18 04:24:54;;;;;;;;;11.60;9.60;;;;;7.93;59.01;95909.53;6242128;27;97735;-64
2023/01/18 04:27:57;;;;;;;;;14.60;13.80;;;;;7.95;58.58;95901.22;6242528;28;96330;-62
2023/01/18 04:31:01;;;;;;;;;10.00;10.00;;;;;7.92;58.80;95897.19;6243735;27;96279;-61
2023/01/18 04:34:04;;;;;;;;;11.00;9.00;;;;;7.80;59.18;95894.88;6245700;27;96380;-64
2023/01/18 04:37:09;;;;;;;;;10.00;9.40;;;;;7.85;59.25;95896.72;6245961;27;96314;-67
2023/01/18 04:40:13;;;;;;;;;9.00;8.60;;;;;7.81;59.17;95901.84;6222139;27;97319;-65
2023/01/18 04:43:17;;;;;;;;;11.00;10.00;;;;;7.67;59.51;95902.72;6249053;27;96307;-62
2023/01/18 04:46:23;;;;;;;;;13.40;12.40;;;;;7.73;59.52;95915.81;6249365;27;96314;-62
2023/01/18 04:49:27;;;;;;;;;12.00;10.80;;;;;7.75;59.65;95916.34;6245534;27;96444;-64
2023/01/18 04:52:32;;;;;;;;;11.00;10.40;;;;;7.77;59.68;95919.53;6248537;27;96414;-62
2023/01/18 04:55:36;;;;;;;;;16.00;14.00;;;;;7.82;59.50;95930.25;6242142;27;97323;-62
2023/01/18 04:58:39;;;;;;;;;14.40;12.40;;;;;7.80;59.78;95924.38;6252396;27;96070;-62
2023/01/18 05:01:42;;;;;;;;;11.00;10.50;;;;;7.78;59.48;95902.38;6248864;27;96369;-61
2023/01/18 05:04:46;;;;;;;;;12.00;11.00;;;;;7.64;59.35;95889.84;6248719;27;96424;-62
2023/01/18 05:07:51;;;;;;;;;13.00;12.67;;;;;7.77;59.82;95911.50;6240974;27;96373;-61
2023/01/18 05:11:01;;;;;;;;;12.00;12.00;;;;;7.78;59.70;95929.19;6237437;27;96246;-63
2023/01/18 05:14:04;;;;;;;;;15.80;14.00;;;;;7.75;59.62;95937.81;6230647;28;96529;-62
2023/01/18 05:17:07;;;;;;;;;20.40;17.60;;;;;7.76;59.99;95941.28;6220056;27;97114;-62
2023/01/18 05:20:12;;;;;;;;;14.60;14.00;;;;;7.72;59.90;95934.88;6245931;27;96568;-64
2023/01/18 05:23:17;;;;;;;;;16.40;16.00;;;;;7.68;60.09;95949.88;6238007;27;96886;-61
2023/01/18 05:26:22;;;;;;;;;17.80;16.80;;;;;7.65;60.65;95929.00;6234760;27;96455;-64
2023/01/18 05:29:25;;;;;;;;;15.60;15.00;;;;;7.76;60.20;95925.19;6207611;27;97208;-61
2023/01/18 05:32:29;;;;;;;;;18.40;17.40;;;;;7.87;59.81;95920.59;6238169;28;96346;-63
2023/01/18 05:35:32;;;;;;;;;16.50;15.00;;;;;7.90;59.78;95939.59;6238880;28;96915;-61
2023/01/18 05:38:37;;;;;;;;;19.00;16.40;;;;;7.86;59.78;95941.25;6237907;28;96911;-62
2023/01/18 05:41:40;;;;;;;;;16.00;13.60;;;;;7.90;59.66;95957.56;6234614;27;96500;-62
2023/01/18 05:44:44;;;;;;;;;17.00;16.00;;;;;7.91;60.16;95943.91;6244322;27;97552;-61
2023/01/18 05:47:47;;;;;;;;;17.80;16.80;;;;;7.97;59.87;95923.19;6238199;28;96121;-62
2023/01/18 05:50:51;;;;;;;;;17.00;15.00;;;;;8.03;59.48;95916.72;6249604;27;96210;-64
2023/01/18 05:53:56;;;;;;;;;18.60;15.00;;;;;8.07;59.39;95904.34;6223491;27;96633;-62
2023/01/18 05:56:59;;;;;;;;;17.50;16.00;;;;;8.16;59.27;95910.75;6231811;27;97525;-62
2023/01/18 06:00:04;;;;;;;;;14.00;12.40;;;;;8.23;59.01;95914.72;6229707;27;96962;-61
2023/01/18 06:03:13;;;;;;;;;16.00;14.40;;;;;8.25;58.82;95901.03;6236568;28;96778;-62
2023/01/18 06:06:16;;;;;;;;;17.00;15.80;;;;;8.29;58.84;95910.13;6238032;27;96268;-62
2023/01/18 06:09:21;;;;;;;;;18.60;17.00;;;;;8.32;58.63;95938.31;6230416;27;95915;-62
2023/01/18 06:12:25;;;;;;;;;16.20;14.20;;;;;8.34;58.55;95933.47;6215672;28;96614;-62
2023/01/18 06:15:28;;;;;;;;;18.50;16.00;;;;;8.34;58.62;95930.78;6235320;27;96953;-63
2023/01/18 06:18:32;;;;;;;;;16.40;14.60;;;;;8.31;58.55;95928.69;6231084;27;96926;-63
2023/01/18 06:21:36;;;;;;;;;22.20;19.20;;;;;8.31;58.59;95926.75;6229939;27;96863;-63
2023/01/18 06:24:40;;;;;;;;;17.40;15.00;;;;;8.26;58.68;95922.19;6230780;27;96316;-62
2023/01/18 06:27:44;;;;;;;;;16.20;14.20;;;;;8.22;58.88;95929.22;6215745;28;96601;-64
2023/01/18 06:30:47;;;;;;;;;18.50;15.75;;;;;8.09;59.07;95945.13;6233422;27;96435;-63
2023/01/18 06:33:50;;;;;;;;;18.40;18.00;;;;;8.01;59.72;95933.13;6234149;27;96439;-63
2023/01/18 06:36:54;;;;;;;;;17.40;16.40;;;;;8.06;59.80;95954.53;6233354;27;97307;-64
2023/01/18 06:39:59;;;;;;;;;18.60;17.20;;;;;8.09;59.51;95955.88;6235909;27;96615;-62
2023/01/18 06:43:06;;;;;;;;;16.60;16.60;;;;;8.15;59.67;95946.72;6230128;28;96297;-63
2023/01/18 06:46:10;;;;;;;;;15.00;14.60;;;;;8.18;59.55;95938.09;6243961;28;96295;-61
2023/01/18 06:49:14;;;;;;;;;13.80;12.80;;;;;8.15;59.41;95936.78;6207029;28;96634;-62
2023/01/18 06:52:17;;;;;;;;;20.40;17.40;;;;;8.21;59.64;95934.84;6248459;27;96446;-61
2023/01/18 06:55:22;;;;;;;;;18.00;17.00;;;;;8.25;59.39;95946.66;6233889;27;96309;-62
2023/01/18 06:58:26;;;;;;;;;17.00;15.00;;;;;8.24;58.94;95937.00;6235628;27;97411;-63
2023/01/18 07:01:30;;;;;;;;;19.00;15.50;;;;;8.25;59.33;95960.06;6243158;28;96268;-63
2023/01/18 07:04:36;;;;;;;;;17.00;13.80;;;;;8.13;59.46;95964.97;6226585;28;96750;-61
2023/01/18 07:07:40;;;;;;;;;17.00;15.00;;;;;8.11;60.17;95983.22;6228183;28;96294;-60
2023/01/18 07:10:44;;;;;;;;;15.20;14.20;;;;;8.14;60.40;95986.16;6244294;28;96421;-61
2023/01/18 07:13:48;;;;;;;;;18.00;15.00;;;;;8.16;60.25;95997.41;6242938;28;96209;-61
2023/01/18 07:16:52;;;;;;;;;16.00;13.00;;;;;8.18;60.15;95986.41;6243463;28;96278;-63
2023/01/18 07:19:55;;;;;;;;;14.00;13.00;;;;;8.30;59.80;95978.06;6242180;28;96365;-61
2023/01/18 07:22:59;;;;;;;;;16.00;14.40;;;;;8.35;59.68;95980.72;6218171;28;99013;-62
2023/01/18 07:26:06;;;;;;;;;19.00;15.00;;;;;8.39;59.63;95971.00;6236458;28;96451;-62
2023/01/18 07:29:10;;;;;;;;;20.50;15.75;;;;;8.44;59.50;95973.66;6237504;28;96586;-61
2023/01/18 07:32:13;;;;;;;;;18.20;16.00;;;;;8.47;59.36;95973.91;6228007;27;96313;-64
2023/01/18 07:35:18;;;;;;;;;16.60;16.00;;;;;8.52;59.15;95975.75;6232285;28;96202;-63
2023/01/18 07:38:22;;;;;;;;;15.00;14.50;;;;;8.54;59.01;95981.66;6241895;28;96143;-63
2023/01/18 07:41:27;;;;;;;;;20.50;17.50;;;;;8.48;58.99;95988.94;6242666;28;96279;-61
2023/01/18 07:44:33;;;;;;;;;24.00;20.00;;;;;8.41;59.11;95998.34;6243728;28;96331;-62
2023/01/18 07:47:38;;;;;;;;;25.00;23.00;;;;;8.37;59.34;95997.31;6243068;28;96323;-61
2023/01/18 07:50:41;;;;;;;;;17.40;16.40;;;;;8.37;59.20;95991.94;6222216;28;96679;-61
2023/01/18 07:53:45;;;;;;;;;19.00;16.60;;;;;8.35;59.20;95996.81;6241315;28;96375;-62
2023/01/18 07:56:50;;;;;;;;;14.60;13.00;;;;;8.27;59.00;95990.91;6239449;28;96287;-61
2023/01/18 07:59:54;;;;;;;;;17.00;14.50;;;;;8.21;58.87;95977.78;6240623;28;96346;-63
2023/01/18 08:02:57;;;;;;;;;16.00;15.00;;;;;8.24;58.77;95985.28;6242861;28;96811;-62
2023/01/18 08:06:01;;;;;;;;;16.00;14.00;;;;;8.22;58.82;95996.28;6243142;28;96258;-62
2023/01/18 08:09:05;;;;;;;;;15.20;12.40;;;;;8.23;58.83;95975.63;6224055;28;96793;-63
2023/01/18 08:12:12;;;;;;;;;12.00;11.00;;;;;8.27;58.47;95966.75;6243133;28;96336;-62
2023/01/18 08:15:15;;;;;;;;;16.00;14.00;;;;;8.31;58.50;95969.69;6244041;28;96350;-61
2023/01/18 08:18:19;;;;;;;;;15.00;13.50;;;;;8.36;58.21;95966.19;6224494;28;96338;-61
2023/01/18 08:21:22;;;;;;;;;16.00;13.00;;;;;8.38;58.08;95961.34;6223347;28;99029;-62
2023/01/18 08:24:25;;;;;;;;;13.75;13.25;;;;;8.43;57.74;95972.84;6241668;28;97003;-61
2023/01/18 08:27:33;;;;;;;;;19.60;18.60;;;;;8.43;57.89;95980.91;6243767;28;96268;-64
2023/01/18 08:30:39;;;;;;;;;18.80;17.80;;;;;8.45;57.59;95992.19;6238420;28;96334;-66
2023/01/18 08:33:46;;;;;;;;;23.60;21.00;;;;;8.45;57.73;95999.44;6238157;28;96894;-65
2023/01/18 08:36:49;;;;;;;;;27.00;22.50;;;;;8.42;57.87;96002.66;6238088;28;96197;-66
2023/01/18 08:39:53;;;;;;;;;19.50;17.75;;;;;8.46;57.69;96006.38;6238285;28;96343;-66
2023/01/18 08:42:59;;;;;;;;;16.00;15.00;;;;;8.45;57.76;96016.34;6220376;28;96171;-68
2023/01/18 08:46:03;;;;;;;;;15.80;14.00;;;;;8.41;57.60;96014.47;6240157;28;96404;-65
2023/01/18 08:49:07;;;;;;;;;16.00;12.60;;;;;8.45;57.49;96018.22;6238756;28;97066;-65
2023/01/18 08:52:10;;;;;;;;;12.00;11.00;;;;;8.50;57.14;96021.66;6237854;28;96445;-64
2023/01/18 08:55:14;;;;;;;;;14.00;12.75;;;;;8.51;56.89;96014.41;6218944;28;96617;-64
2023/01/18 08:58:18;;;;;;;;;12.80;11.80;;;;;8.54;56.80;96027.28;6238337;28;96769;-64
2023/01/18 09:01:22;;;;;;;;;13.00;11.80;;;;;8.52;56.61;96013.34;6211409;28;96497;-64
2023/01/18 09:04:29;;;;;;;;;14.00;12.60;;;;;8.48;56.53;96023.03;6227518;28;97060;-67
2023/01/18 09:07:32;;;;;;;;;13.60;12.40;;;;;8.47;56.64;96035.66;6219849;28;96493;-66
2023/01/18 09:10:37;;;;;;;;;12.00;11.00;;;;;8.45;56.61;96035.13;6217647;28;98556;-66
2023/01/18 09:13:42;;;;;;;;;12.25;11.25;;;;;8.45;56.70;96032.44;6221910;28;96252;-66
2023/01/18 09:17:02;;;;;;;;;13.40;12.00;;;;;8.40;56.68;96035.16;6237766;28;96190;-65
2023/01/18 09:20:10;;;;;;;;;16.00;13.40;;;;;8.42;57.05;96021.44;6237473;28;96247;-66
2023/01/18 09:23:14;;;;;;;;;13.00;12.00;;;;;8.46;56.87;96019.81;6237667;28;96768;-66
2023/01/18 09:26:19;;;;;;;;;13.75;12.75;;;;;8.48;56.56;96006.91;6235927;28;96326;-65
2023/01/18 09:29:24;;;;;;;;;16.20;12.20;;;;;8.43;56.71;96015.81;6237449;28;97668;-65
2023/01/18 09:32:28;;;;;;;;;22.00;21.00;;;;;8.35;56.88;96035.19;6236752;28;96300;-65
2023/01/18 09:35:31;;;;;;;;;25.50;23.75;;;;;8.38;56.90;96050.72;6236758;28;96438;-66
2023/01/18 09:38:36;;;;;;;;;24.00;19.50;;;;;8.42;57.10;96054.47;6236022;28;96929;-66
2023/01/18 09:41:43;;;;;;;;;19.00;16.00;;;;;8.48;56.97;96044.50;6225438;28;96335;-65
2023/01/18 09:44:52;;;;;;;;;16.20;16.00;;;;;8.49;56.90;96046.13;6237090;27;96091;-65
2023/01/18 09:48:02;;;;;;;;;14.00;13.00;;;;;8.58;56.84;96056.00;6237392;27;97139;-65
2023/01/18 09:51:12;;;;;;;;;17.00;14.00;;;;;8.54;56.70;96057.63;6232833;28;96395;-64
2023/01/18 09:54:30;;;;;;;;;14.80;13.00;;;;;8.65;56.56;96077.94;6236021;28;98188;-65
2023/01/18 09:57:46;;;;;;;;;13.00;13.00;;;;;8.62;56.52;96078.50;6235913;28;97172;-65
2023/01/18 10:00:54;;;;;;;;;17.50;15.50;;;;;8.64;56.48;96081.75;6234904;27;96572;-64
2023/01/18 10:04:02;;;;;;;;;17.00;14.00;;;;;8.68;56.51;96088.16;6237247;28;96215;-64
2023/01/18 10:07:13;;;;;;;;;13.60;13.00;;;;;8.61;56.75;96093.00;6233099;28;96873;-64
2023/01/18 10:10:18;;;;;;;;;18.00;16.00;;;;;8.59;56.82;96089.03;6234711;28;96305;-65
2023/01/18 10:13:34;;;;;;;;;18.00;16.00;;;;;8.52;57.11;96088.50;6216329;28;96750;-65
2023/01/18 10:16:38;;;;;;;;;21.60;19.40;;;;;8.55;57.24;96086.06;6238650;27;96487;-65
2023/01/18 10:19:42;;;;;;;;;20.00;16.40;;;;;8.58;57.10;96093.59;6233562;27;96531;-65
2023/01/18 10:22:50;;;;;;;;;20.00;18.00;;;;;8.67;56.98;96088.41;6216074;28;96527;-63
2023/01/18 10:25:56;;;;;;;;;16.20;15.00;;;;;8.65;57.08;96104.81;6249851;27;96372;-65
2023/01/18 10:29:07;;;;;;;;;15.00;14.20;;;;;8.57;57.48;96120.69;6253296;27;96589;-65
2023/01/18 10:32:17;;;;;;;;;17.40;17.00;;;;;8.63;57.13;96104.28;6254009;27;96373;-65
2023/01/18 10:35:27;;;;;;;;;16.00;15.40;;;;;8.42;57.44;96092.03;6249788;27;96330;-64
2023/01/18 10:38:31;;;;;;;;;19.50;15.50;;;;;8.48;57.65;96107.06;6232310;27;96435;-64
2023/01/18 10:41:39;;;;;;;;;17.00;15.00;;;;;8.51;57.97;96129.84;6256100;27;96119;-65
2023/01/18 10:44:42;;;;;;;;;20.00;18.60;;;;;8.54;58.05;96130.13;6243375;27;96217;-66
2023/01/18 10:47:48;;;;;;;;;20.25;18.75;;;;;8.42;58.54;96134.19;6253123;27;96249;-65
2023/01/18 10:50:53;;;;;;;;;21.80;19.00;;;;;8.57;58.50;96134.94;6249498;27;96514;-66
2023/01/18 10:53:57;;;;;;;;;21.00;20.80;;;;;8.59;58.33;96145.41;6242493;27;96274;-66
2023/01/18 10:57:02;;;;;;;;;26.00;24.40;;;;;8.56;58.71;96145.94;6237481;28;96206;-66
2023/01/18 11:00:20;;;;;;;;;26.20;24.00;;;;;8.59;58.36;96151.59;6221486;28;96505;-67
2023/01/18 11:03:27;;;;;;;;;27.00;24.25;;;;;8.64;58.66;96165.00;6240064;28;96237;-65
2023/01/18 11:06:30;;;;;;;;;28.60;25.60;;;;;8.65;58.41;96166.56;6245615;27;96438;-64
2023/01/18 11:09:42;;;;;;;;;25.00;22.25;;;;;8.58;58.93;96167.97;6234026;27;96214;-64
2023/01/18 11:12:50;;;;;;;;;23.00;21.00;;;;;8.55;58.90;96171.19;6208588;28;96371;-64
2023/01/18 11:16:04;;;;;;;;;22.00;20.00;;;;;8.55;59.10;96173.88;6226892;28;96380;-65
2023/01/18 11:19:18;;;;;;;;;23.00;21.00;;;;;8.52;59.34;96175.22;6246257;27;96253;-66
2023/01/18 11:22:24;;;;;;;;;25.00;21.00;;;;;8.47;59.70;96188.66;6248099;27;96520;-65
2023/01/18 11:25:36;;;;;;;;;24.20;21.00;;;;;8.43;60.09;96190.28;6237121;27;96575;-66
2023/01/18 11:28:45;;;;;;;;;22.40;21.00;;;;;8.48;59.96;96198.34;6237354;28;96076;-64
2023/01/18 11:31:51;;;;;;;;;26.25;24.00;;;;;8.50;60.01;96200.75;6219217;28;97567;-65
2023/01/18 11:34:59;;;;;;;;;27.60;23.00;;;;;8.50;60.20;96201.53;6234729;28;96224;-66
2023/01/18 11:38:05;;;;;;;;;27.80;23.80;;;;;8.57;60.05;96212.00;6229893;28;96169;-64
2023/01/18 11:41:15;;;;;;;;;28.00;24.00;;;;;8.65;59.98;96222.16;6234580;28;96658;-64
2023/01/18 11:44:23;;;;;;;;;26.40;21.80;;;;;8.84;59.49;96220.50;6234287;28;96813;-66
2023/01/18 11:47:32;;;;;;;;;28.20;26.20;;;;;8.95;59.19;96230.09;6237759;28;96763;-65
2023/01/18 11:50:43;;;;;;;;;28.00;25.00;;;;;9.01;58.95;96226.31;6217159;28;96372;-64
2023/01/18 11:53:55;;;;;;;;;30.00;25.75;;;;;9.07;58.78;96237.84;6236502;28;96422;-64
2023/01/18 11:57:01;;;;;;;;;25.20;23.80;;;;;9.07;58.51;96233.28;6231333;28;96546;-63
2023/01/18 12:00:12;;;;;;;;;26.20;23.20;;;;;9.21;58.30;96236.16;6238398;28;96280;-66
2023/01/18 12:03:44;;;;;;;;;29.40;26.40;;;;;9.26;58.01;96240.69;6200574;28;96691;-64
2023/01/18 12:07:02;;;;;;;;;31.80;26.00;;;;;9.04;58.30;96254.53;6232197;28;96309;-64
2023/01/18 12:10:12;;;;;;;;;27.00;23.00;;;;;9.25;58.32;96269.47;6214649;28;96266;-67
2023/01/18 12:13:32;;;;;;;;;27.25;25.00;;;;;9.32;58.52;96272.66;6232208;28;97361;-63
2023/01/18 12:16:54;;;;;;;;;25.40;24.00;;;;;9.30;57.97;96266.75;6224432;28;96303;-65
2023/01/18 12:20:18;;;;;;;;;25.80;24.00;;;;;9.47;57.82;96275.25;6263909;27;97475;-63
2023/01/18 12:23:47;;;;;;;;;24.00;23.00;;;;;9.39;57.38;96297.34;6197508;27;97728;-64
2023/01/18 12:26:55;;;;;;;;;28.00;26.60;;;;;9.29;57.45;96292.00;6236111;28;96320;-65
2023/01/18 12:30:25;;;;;;;;;23.40;19.80;;;;;9.43;57.08;96309.16;6234762;28;96755;-64
2023/01/18 12:33:40;;;;;;;;;20.00;18.00;;;;;9.57;57.40;96312.06;6236438;28;96881;-64
2023/01/18 12:37:02;;;;;;;;;19.60;18.60;;;;;9.61;57.09;96313.09;6233472;28;96306;-65
2023/01/18 12:40:28;;;;;;;;;21.60;17.60;;;;;9.56;57.11;96319.31;6234590;28;96107;-65
2023/01/18 12:43:41;;;;;;;;;19.00;17.50;;;;;9.59;57.08;96336.78;6235044;28;96228;-65
2023/01/18 12:46:54;;;;;;;;;18.20;16.60;;;;;9.70;56.65;96334.84;6233271;28;96587;-64
2023/01/18 12:50:02;;;;;;;;;22.40;20.40;;;;;9.53;56.91;96346.75;6234568;28;97041;-64
2023/01/18 12:53:12;;;;;;;;;18.00;17.60;;;;;9.36;57.26;96345.50;6210571;28;96642;-64
2023/01/18 12:56:22;;;;;;;;;22.00;20.00;;;;;9.46;57.42;96354.31;6203421;28;96811;-64
2023/01/18 12:59:30;;;;;;;;;16.60;14.00;;;;;9.45;57.50;96359.97;6232484;28;96238;-65
2023/01/18 13:02:39;;;;;;;;;21.00;19.40;;;;;9.41;57.39;96380.44;6236266;28;96840;-64
2023/01/18 13:05:51;;;;;;;;;23.00;20.25;;;;;9.40;57.16;96368.06;6236289;28;97085;-66
2023/01/18 13:08:59;;;;;;;;;21.20;19.60;;;;;9.57;56.84;96393.53;6235779;28;96889;-63
2023/01/18 13:12:05;;;;;;;;;23.00;20.75;;;;;9.48;57.16;96402.47;6236264;28;96212;-65
2023/01/18 13:15:25;;;;;;;;;22.80;22.40;;;;;9.44;57.47;96425.56;6236689;28;96342;-65
2023/01/18 13:18:36;;;;;;;;;20.60;18.60;;;;;9.31;57.41;96432.34;6226121;28;96318;-63
2023/01/18 13:21:52;;;;;;;;;24.40;23.00;;;;;9.20;57.76;96444.19;6232955;28;96563;-66
2023/01/18 13:25:17;;;;;;;;;25.40;23.00;;;;;9.32;57.70;96452.78;6233794;28;96521;-65
2023/01/18 13:28:25;;;;;;;;;21.50;19.50;;;;;9.34;57.85;96471.31;6232044;27;97065;-69
2023/01/18 13:31:30;;;;;;;;;22.60;21.00;;;;;9.40;57.75;96476.41;6232126;28;96237;-63
2023/01/18 13:34:37;;;;;;;;;25.60;24.60;;;;;9.39;57.78;96488.25;6232098;28;96558;-65
2023/01/18 13:37:52;;;;;;;;;25.00;23.00;;;;;9.32;58.25;96490.44;6231945;27;97164;-64
2023/01/18 13:41:01;;;;;;;;;23.40;22.00;;;;;9.47;58.24;96505.72;6220539;28;96273;-65
2023/01/18 13:44:25;;;;;;;;;25.75;23.75;;;;;9.44;58.14;96525.88;6217572;27;97836;-66
2023/01/18 13:47:46;;;;;;;;;26.60;23.60;;;;;9.32;58.32;96521.88;6234777;27;96427;-65
2023/01/18 13:50:51;;;;;;;;;24.20;22.60;;;;;9.43;57.99;96539.63;6243122;27;96650;-65
2023/01/18 13:53:55;;;;;;;;;22.00;21.00;;;;;9.47;58.49;96532.63;6239350;28;97487;-66
2023/01/18 13:57:16;;;;;;;;;23.60;22.20;;;;;9.43;58.19;96529.63;6237333;28;96370;-65
2023/01/18 14:00:25;;;;;;;;;23.40;21.00;;;;;9.60;58.33;96553.56;6240140;28;97395;-65
2023/01/18 14:03:32;;;;;;;;;22.20;21.00;;;;;9.62;57.97;96564.88;6240958;27;96861;-65
2023/01/18 14:06:41;;;;;;;;;20.00;17.00;;;;;9.47;58.74;96565.69;6224351;28;96885;-66
2023/01/18 14:09:48;;;;;;;;;13.00;12.00;;;;;9.42;58.04;96578.34;6238385;28;96801;-65
2023/01/18 14:12:53;;;;;;;;;15.00;14.00;;;;;9.48;58.31;96588.78;6219116;28;98400;-65
2023/01/18 14:15:59;;;;;;;;;14.40;12.40;;;;;9.34;58.44;96590.41;6238521;27;96727;-66
2023/01/18 14:19:14;;;;;;;;;16.80;16.20;;;;;9.34;58.90;96609.25;6235599;28;96860;-66
2023/01/18 14:22:33;;;;;;;;;12.20;11.20;;;;;9.27;59.15;96610.59;6238155;28;97523;-66
2023/01/18 14:25:57;;;;;;;;;17.00;15.00;;;;;9.25;59.35;96618.13;6237750;28;97413;-68
2023/01/18 14:29:05;;;;;;;;;14.50;13.00;;;;;9.22;59.50;96615.97;6238101;28;96462;-65
2023/01/18 14:32:21;;;;;;;;;14.00;13.00;;;;;9.17;59.21;96603.34;6238137;28;97885;-67
2023/01/18 14:35:25;;;;;;;;;12.00;11.00;;;;;9.21;59.79;96623.22;6235933;28;96325;-66
2023/01/18 14:38:30;;;;;;;;;13.00;12.40;;;;;9.23;60.13;96629.16;6237573;28;96585;-68
2023/01/18 14:41:33;;;;;;;;;15.40;13.60;;;;;9.22;60.19;96634.78;6216277;28;98454;-65
2023/01/18 14:44:41;;;;;;;;;15.20;13.60;;;;;9.25;60.21;96642.31;6230295;28;96935;-66
2023/01/18 14:48:09;;;;;;;;;16.00;14.00;;;;;9.34;60.19;96656.81;6231958;28;96484;-66
2023/01/18 14:51:17;;;;;;;;;17.60;14.60;;;;;9.31;60.49;96663.56;6216367;28;98309;-66
2023/01/18 14:54:23;;;;;;;;;18.40;17.00;;;;;9.22;60.88;96657.09;6237987;28;97640;-67
2023/01/18 14:57:27;;;;;;;;;16.80;16.00;;;;;9.38;60.69;96674.06;6234986;28;96794;-65
2023/01/18 15:00:30;;;;;;;;;19.60;17.00;;;;;9.43;60.43;96680.22;6232822;27;96564;-66
2023/01/18 15:03:36;;;;;;;;;20.33;18.67;;;;;9.48;60.37;96679.44;6218178;28;97501;-65
2023/01/18 15:06:43;;;;;;;;;19.00;18.00;;;;;9.55;60.14;96690.72;6242067;27;96520;-65
2023/01/18 15:09:47;;;;;;;;;21.60;18.60;;;;;9.64;59.77;96691.00;6237362;28;96247;-65